createdAt,value
2023-03-25T00:00:00.553Z,99100
2023-03-25T00:01:03.236Z,99110
2023-03-25T00:02:00.546Z,99110
2023-03-25T00:03:00.552Z,99100
2023-03-25T00:04:01.800Z,99110
2023-03-25T00:05:00.621Z,99100
2023-03-25T00:06:00.493Z,99100
2023-03-25T00:07:00.502Z,99100
2023-03-25T00:08:00.482Z,99100
2023-03-25T00:09:01.868Z,99100
2023-03-25T00:10:00.505Z,99100
2023-03-25T00:11:02.102Z,99100
2023-03-25T00:12:00.534Z,99100
2023-03-25T00:13:00.515Z,99100
2023-03-25T00:14:00.554Z,99090
2023-03-25T00:15:00.526Z,99090
2023-03-25T00:16:03.087Z,99090
2023-03-25T00:17:00.497Z,99090
2023-03-25T00:18:00.544Z,99090
2023-03-25T00:19:00.495Z,99090
2023-03-25T00:20:00.530Z,99090
2023-03-25T00:21:01.741Z,99090
2023-03-25T00:22:00.827Z,99090
2023-03-25T00:23:00.559Z,99080
2023-03-25T00:24:00.514Z,99080
2023-03-25T00:25:00.497Z,99080
2023-03-25T00:26:00.596Z,99080
2023-03-25T00:27:00.562Z,99070
2023-03-25T00:28:00.502Z,99070
2023-03-25T00:29:00.501Z,99070
2023-03-25T00:30:00.495Z,99070
2023-03-25T00:31:03.892Z,99070
2023-03-25T00:32:00.494Z,99070
2023-03-25T00:33:00.607Z,99070
2023-03-25T00:34:00.523Z,99070
2023-03-25T00:35:00.489Z,99070
2023-03-25T00:36:00.944Z,99070
2023-03-25T00:37:00.957Z,99070
2023-03-25T00:38:00.621Z,99070
2023-03-25T00:39:00.523Z,99060
2023-03-25T00:40:00.494Z,99070
2023-03-25T00:41:10.432Z,99070
2023-03-25T00:42:00.573Z,99070
2023-03-25T00:43:02.087Z,99070
2023-03-25T00:44:01.077Z,99070
2023-03-25T00:45:00.501Z,99070
2023-03-25T00:46:00.622Z,99070
2023-03-25T00:47:00.484Z,99070
2023-03-25T00:48:00.537Z,99070
2023-03-25T00:49:00.547Z,99070
2023-03-25T00:50:00.510Z,99070
2023-03-25T00:51:00.535Z,99070
2023-03-25T00:52:00.486Z,99070
2023-03-25T00:53:00.517Z,99070
2023-03-25T00:54:00.539Z,99070
2023-03-25T00:55:00.606Z,99070
2023-03-25T00:56:00.516Z,99070
2023-03-25T00:57:00.521Z,99070
2023-03-25T00:58:00.507Z,99070
2023-03-25T00:59:00.510Z,99070
2023-03-25T01:00:00.693Z,99070
2023-03-25T01:01:00.490Z,99070
2023-03-25T01:02:00.479Z,99070
2023-03-25T01:03:01.023Z,99070
2023-03-25T01:04:00.903Z,99070
2023-03-25T01:05:01.323Z,99070
2023-03-25T01:06:00.486Z,99070
2023-03-25T01:07:00.473Z,99080
2023-03-25T01:08:00.496Z,99080
2023-03-25T01:09:03.361Z,99080
2023-03-25T01:10:00.694Z,99080
2023-03-25T01:11:00.512Z,99070
2023-03-25T01:12:00.509Z,99070
2023-03-25T01:13:00.512Z,99070
2023-03-25T01:14:02.520Z,99070
2023-03-25T01:15:00.648Z,99060
2023-03-25T01:16:00.555Z,99070
2023-03-25T01:17:00.565Z,99060
2023-03-25T01:18:00.935Z,99060
2023-03-25T01:19:00.541Z,99060
2023-03-25T01:20:00.520Z,99060
2023-03-25T01:21:00.508Z,99060
2023-03-25T01:22:00.533Z,99060
2023-03-25T01:23:00.541Z,99060
2023-03-25T01:24:01.167Z,99060
2023-03-25T01:25:00.583Z,99060
2023-03-25T01:26:00.941Z,99060
2023-03-25T01:27:00.623Z,99060
2023-03-25T01:28:00.721Z,99060
2023-03-25T01:29:00.843Z,99060
2023-03-25T01:30:00.714Z,99060
2023-03-25T01:31:01.485Z,99060
2023-03-25T01:32:00.546Z,99060
2023-03-25T01:33:00.581Z,99060
2023-03-25T01:34:00.747Z,99060
2023-03-25T01:35:00.548Z,99060
2023-03-25T01:36:00.586Z,99060
2023-03-25T01:37:00.532Z,99060
2023-03-25T01:38:00.517Z,99050
2023-03-25T01:39:01.372Z,99050
2023-03-25T01:40:00.573Z,99050
2023-03-25T01:41:00.528Z,99050
2023-03-25T01:42:00.576Z,99050
2023-03-25T01:43:00.534Z,99050
2023-03-25T01:44:12.262Z,99050
2023-03-25T01:45:13.527Z,99060
2023-03-25T01:46:01.008Z,99050
2023-03-25T01:47:03.918Z,99050
2023-03-25T01:48:06.975Z,99040
2023-03-25T01:49:02.896Z,99040
2023-03-25T01:50:00.549Z,99040
2023-03-25T01:51:08.213Z,99040
2023-03-25T01:52:05.751Z,99040
2023-03-25T01:53:03.761Z,99040
2023-03-25T01:54:00.682Z,99030
2023-03-25T01:55:00.569Z,99030
2023-03-25T01:56:04.285Z,99030
2023-03-25T01:57:00.837Z,99030
2023-03-25T01:58:05.852Z,99030
2023-03-25T01:59:03.074Z,99030
2023-03-25T02:00:00.846Z,99030
2023-03-25T02:01:01.791Z,99030
2023-03-25T02:02:03.108Z,99030
2023-03-25T02:03:01.063Z,99030
2023-03-25T02:04:02.587Z,99020
2023-03-25T02:05:09.142Z,99030
2023-03-25T02:06:05.125Z,99030
2023-03-25T02:07:01.156Z,99020
2023-03-25T02:08:03.693Z,99020
2023-03-25T02:09:02.497Z,99020
2023-03-25T02:10:04.562Z,99010
2023-03-25T02:11:00.687Z,99020
2023-03-25T02:12:00.605Z,99010
2023-03-25T02:13:01.006Z,99010
2023-03-25T02:14:05.338Z,99010
2023-03-25T02:15:03.787Z,99020
2023-03-25T02:16:11.484Z,99020
2023-03-25T02:17:11.417Z,99020
2023-03-25T02:18:09.194Z,99010
2023-03-25T02:19:20.363Z,99010
2023-03-25T02:20:20.365Z,99020
2023-03-25T02:21:20.385Z,99020
2023-03-25T02:22:20.375Z,99020
2023-03-25T02:23:11.430Z,99020
2023-03-25T02:24:10.468Z,99030
2023-03-25T02:25:13.688Z,99030
2023-03-25T02:26:20.402Z,99020
2023-03-25T02:27:15.395Z,99020
2023-03-25T02:28:18.731Z,99020
2023-03-25T02:29:09.480Z,99020
2023-03-25T02:30:17.994Z,99020
2023-03-25T02:31:17.289Z,99020
2023-03-25T02:32:10.448Z,99020
2023-03-25T02:33:11.562Z,99020
2023-03-25T02:34:10.456Z,99020
2023-03-25T02:35:20.408Z,99020
2023-03-25T02:36:13.723Z,99020
2023-03-25T02:37:20.404Z,99010
2023-03-25T02:38:20.423Z,99010
2023-03-25T02:39:11.440Z,99010
2023-03-25T02:40:05.320Z,99010
2023-03-25T02:41:05.497Z,99010
2023-03-25T02:42:15.419Z,99010
2023-03-25T02:43:04.721Z,99010
2023-03-25T02:44:06.091Z,99010
2023-03-25T02:45:02.067Z,99010
2023-03-25T02:46:06.714Z,99010
2023-03-25T02:47:05.043Z,99010
2023-03-25T02:48:04.579Z,99010
2023-03-25T02:49:05.178Z,99010
2023-03-25T02:50:08.777Z,99010
2023-03-25T02:51:07.603Z,99010
2023-03-25T02:52:10.048Z,99010
2023-03-25T02:53:04.334Z,99010
2023-03-25T02:54:06.566Z,99010
2023-03-25T02:55:02.451Z,99010
2023-03-25T02:56:05.741Z,99010
2023-03-25T02:57:00.723Z,99010
2023-03-25T02:58:05.265Z,99010
2023-03-25T02:59:01.620Z,99020
2023-03-25T03:00:03.091Z,99020
2023-03-25T03:01:00.772Z,99020
2023-03-25T03:02:03.724Z,99020
2023-03-25T03:03:04.212Z,99020
2023-03-25T03:04:00.759Z,99020
2023-03-25T03:05:00.560Z,99020
2023-03-25T03:06:02.433Z,99020
2023-03-25T03:07:00.582Z,99020
2023-03-25T03:08:13.835Z,99020
2023-03-25T03:09:15.027Z,99020
2023-03-25T03:10:16.866Z,99020
2023-03-25T03:11:11.557Z,99020
2023-03-25T03:12:14.612Z,99020
2023-03-25T03:13:10.377Z,99020
2023-03-25T03:14:10.546Z,99020
2023-03-25T03:15:08.830Z,99020
2023-03-25T03:16:20.566Z,99020
2023-03-25T03:17:10.606Z,99020
2023-03-25T03:18:08.672Z,99020
2023-03-25T03:19:09.177Z,99010
2023-03-25T03:20:15.865Z,99010
2023-03-25T03:21:10.544Z,99010
2023-03-25T03:22:11.554Z,99020
2023-03-25T03:23:06.945Z,99020
2023-03-25T03:24:05.954Z,99020
2023-03-25T03:25:03.865Z,99020
2023-03-25T03:26:14.617Z,99020
2023-03-25T03:27:13.099Z,99010
2023-03-25T03:28:06.602Z,99020
2023-03-25T03:29:11.909Z,99020
2023-03-25T03:30:18.256Z,99020
2023-03-25T03:31:06.071Z,99020
2023-03-25T03:32:10.222Z,99020
2023-03-25T03:33:10.248Z,99020
2023-03-25T03:34:05.165Z,99030
2023-03-25T03:35:07.712Z,99030
2023-03-25T03:36:05.851Z,99030
2023-03-25T03:37:03.523Z,99030
2023-03-25T03:38:05.578Z,99030
2023-03-25T03:39:05.596Z,99030
2023-03-25T03:40:03.121Z,99030
2023-03-25T03:41:06.775Z,99030
2023-03-25T03:42:07.910Z,99030
2023-03-25T03:43:06.401Z,99030
2023-03-25T03:44:05.282Z,99030
2023-03-25T03:45:08.345Z,99030
2023-03-25T03:46:06.351Z,99030
2023-03-25T03:47:06.221Z,99030
2023-03-25T03:48:06.272Z,99030
2023-03-25T03:49:07.003Z,99020
2023-03-25T03:50:13.129Z,99020
2023-03-25T03:51:07.128Z,99030
2023-03-25T03:52:08.065Z,99030
2023-03-25T03:53:13.599Z,99030
2023-03-25T03:54:05.705Z,99030
2023-03-25T03:55:08.122Z,99030
2023-03-25T03:56:08.212Z,99030
2023-03-25T03:57:06.225Z,99030
2023-03-25T03:58:07.209Z,99030
2023-03-25T03:59:01.645Z,99030
2023-03-25T04:00:12.115Z,99030
2023-03-25T04:01:07.545Z,99020
2023-03-25T04:02:07.560Z,99030
2023-03-25T04:03:08.058Z,99030
2023-03-25T04:04:03.980Z,99030
2023-03-25T04:05:00.952Z,99030
2023-03-25T04:06:07.245Z,99030
2023-03-25T04:07:07.089Z,99030
2023-03-25T04:08:05.063Z,99030
2023-03-25T04:09:10.136Z,99030
2023-03-25T04:10:08.988Z,99030
2023-03-25T04:11:04.851Z,99020
2023-03-25T04:12:01.559Z,99020
2023-03-25T04:13:04.000Z,99030
2023-03-25T04:14:02.124Z,99020
2023-03-25T04:15:02.463Z,99030
2023-03-25T04:16:00.978Z,99030
2023-03-25T04:17:00.509Z,99030
2023-03-25T04:18:01.204Z,99030
2023-03-25T04:19:00.493Z,99030
2023-03-25T04:20:01.157Z,99030
2023-03-25T04:21:00.889Z,99020
2023-03-25T04:22:04.598Z,99030
2023-03-25T04:23:01.145Z,99030
2023-03-25T04:24:00.566Z,99030
2023-03-25T04:25:00.495Z,99030
2023-03-25T04:26:00.519Z,99030
2023-03-25T04:27:00.734Z,99030
2023-03-25T04:28:00.620Z,99030
2023-03-25T04:29:00.748Z,99030
2023-03-25T04:30:00.503Z,99040
2023-03-25T04:31:00.618Z,99040
2023-03-25T04:32:00.640Z,99040
2023-03-25T04:33:00.619Z,99030
2023-03-25T04:34:00.699Z,99040
2023-03-25T04:35:00.595Z,99030
2023-03-25T04:36:00.582Z,99030
2023-03-25T04:37:00.491Z,99030
2023-03-25T04:38:00.508Z,99040
2023-03-25T04:39:00.503Z,99040
2023-03-25T04:40:00.601Z,99040
2023-03-25T04:41:00.559Z,99040
2023-03-25T04:42:00.607Z,99050
2023-03-25T04:43:00.482Z,99040
2023-03-25T04:44:00.578Z,99040
2023-03-25T04:45:00.527Z,99040
2023-03-25T04:46:00.672Z,99040
2023-03-25T04:47:01.326Z,99040
2023-03-25T04:48:00.774Z,99050
2023-03-25T04:49:00.562Z,99050
2023-03-25T04:50:00.501Z,99050
2023-03-25T04:51:00.678Z,99050
2023-03-25T04:52:00.523Z,99050
2023-03-25T04:53:00.514Z,99050
2023-03-25T04:54:00.493Z,99050
2023-03-25T04:55:00.494Z,99040
2023-03-25T04:56:00.510Z,99050
2023-03-25T04:57:00.544Z,99040
2023-03-25T04:58:00.483Z,99050
2023-03-25T04:59:00.468Z,99050
2023-03-25T05:00:00.482Z,99050
2023-03-25T05:01:00.530Z,99050
2023-03-25T05:02:00.872Z,99050
2023-03-25T05:03:00.538Z,99050
2023-03-25T05:04:02.816Z,99060
2023-03-25T05:05:00.482Z,99060
2023-03-25T05:06:00.507Z,99060
2023-03-25T05:07:00.493Z,99060
2023-03-25T05:08:00.579Z,99060
2023-03-25T05:09:02.985Z,99060
2023-03-25T05:10:00.481Z,99060
2023-03-25T05:11:00.568Z,99060
2023-03-25T05:12:00.522Z,99060
2023-03-25T05:13:03.803Z,99060
2023-03-25T05:14:00.621Z,99050
2023-03-25T05:15:00.504Z,99050
2023-03-25T05:16:00.537Z,99050
2023-03-25T05:17:00.500Z,99050
2023-03-25T05:18:00.549Z,99050
2023-03-25T05:19:00.758Z,99050
2023-03-25T05:20:00.766Z,99050
2023-03-25T05:21:00.515Z,99050
2023-03-25T05:22:00.504Z,99050
2023-03-25T05:23:00.468Z,99040
2023-03-25T05:24:01.076Z,99050
2023-03-25T05:25:00.501Z,99050
2023-03-25T05:26:00.540Z,99040
2023-03-25T05:27:00.495Z,99040
2023-03-25T05:28:00.494Z,99040
2023-03-25T05:29:01.305Z,99040
2023-03-25T05:30:01.097Z,99040
2023-03-25T05:31:00.895Z,99040
2023-03-25T05:32:00.673Z,99050
2023-03-25T05:33:00.512Z,99040
2023-03-25T05:34:00.900Z,99040
2023-03-25T05:35:02.232Z,99040
2023-03-25T05:36:00.564Z,99040
2023-03-25T05:37:00.501Z,99040
2023-03-25T05:38:00.500Z,99040
2023-03-25T05:39:00.833Z,99030
2023-03-25T05:40:00.490Z,99030
2023-03-25T05:41:00.526Z,99030
2023-03-25T05:42:00.492Z,99030
2023-03-25T05:43:00.863Z,99030
2023-03-25T05:44:00.792Z,99030
2023-03-25T05:45:00.462Z,99030
2023-03-25T05:46:00.490Z,99030
2023-03-25T05:47:00.515Z,99030
2023-03-25T05:48:00.944Z,99030
2023-03-25T05:49:00.801Z,99030
2023-03-25T05:50:00.453Z,99040
2023-03-25T05:51:03.236Z,99040
2023-03-25T05:52:00.449Z,99040
2023-03-25T05:53:00.606Z,99040
2023-03-25T05:54:00.650Z,99040
2023-03-25T05:55:00.433Z,99040
2023-03-25T05:56:00.464Z,99040
2023-03-25T05:57:00.483Z,99050
2023-03-25T05:58:00.460Z,99040
2023-03-25T05:59:00.489Z,99040
2023-03-25T06:00:00.495Z,99040
2023-03-25T06:01:00.720Z,99050
2023-03-25T06:02:00.484Z,99050
2023-03-25T06:03:00.528Z,99050
2023-03-25T06:04:01.240Z,99040
2023-03-25T06:05:00.409Z,99050
2023-03-25T06:06:00.586Z,99050
2023-03-25T06:07:00.466Z,99040
2023-03-25T06:08:00.438Z,99050
2023-03-25T06:09:01.709Z,99040
2023-03-25T06:10:00.478Z,99040
2023-03-25T06:11:00.434Z,99040
2023-03-25T06:12:02.055Z,99050
2023-03-25T06:13:00.441Z,99050
2023-03-25T06:14:02.783Z,99050
2023-03-25T06:15:00.485Z,99050
2023-03-25T06:16:00.519Z,99050
2023-03-25T06:17:00.459Z,99050
2023-03-25T06:18:00.516Z,99040
2023-03-25T06:19:00.667Z,99040
2023-03-25T06:20:00.514Z,99040
2023-03-25T06:21:00.452Z,99040
2023-03-25T06:22:00.470Z,99040
2023-03-25T06:23:00.459Z,99040
2023-03-25T06:24:01.075Z,99040
2023-03-25T06:25:02.427Z,99040
2023-03-25T06:26:00.798Z,99040
2023-03-25T06:27:00.510Z,99040
2023-03-25T06:28:00.417Z,99040
2023-03-25T06:29:00.505Z,99040
2023-03-25T06:30:01.688Z,99040
2023-03-25T06:31:00.446Z,99040
2023-03-25T06:32:00.473Z,99040
2023-03-25T06:33:00.458Z,99040
2023-03-25T06:34:00.539Z,99030
2023-03-25T06:35:00.452Z,99040
2023-03-25T06:36:00.455Z,99040
2023-03-25T06:37:00.993Z,99040
2023-03-25T06:38:00.456Z,99040
2023-03-25T06:39:00.472Z,99040
2023-03-25T06:40:00.729Z,99040
2023-03-25T06:41:00.459Z,99040
2023-03-25T06:42:00.468Z,99040
2023-03-25T06:43:00.483Z,99050
2023-03-25T06:44:00.906Z,99040
2023-03-25T06:45:00.424Z,99050
2023-03-25T06:46:00.546Z,99050
2023-03-25T06:47:00.445Z,99040
2023-03-25T06:48:00.455Z,99040
2023-03-25T06:49:00.494Z,99040
2023-03-25T06:50:00.476Z,99040
2023-03-25T06:51:00.460Z,99040
2023-03-25T06:52:00.486Z,99040
2023-03-25T06:53:00.480Z,99040
2023-03-25T06:54:00.577Z,99040
2023-03-25T06:55:00.546Z,99040
2023-03-25T06:56:00.488Z,99040
2023-03-25T06:57:00.536Z,99040
2023-03-25T06:58:00.516Z,99040
2023-03-25T06:59:00.549Z,99050
2023-03-25T07:00:00.625Z,99050
2023-03-25T07:01:01.383Z,99050
2023-03-25T07:02:00.564Z,99050
2023-03-25T07:03:00.554Z,99050
2023-03-25T07:04:00.591Z,99040
2023-03-25T07:05:00.672Z,99040
2023-03-25T07:06:01.002Z,99040
2023-03-25T07:07:00.592Z,99040
2023-03-25T07:08:00.580Z,99040
2023-03-25T07:09:00.585Z,99030
2023-03-25T07:10:00.568Z,99030
2023-03-25T07:11:03.045Z,99030
2023-03-25T07:12:00.609Z,99030
2023-03-25T07:13:00.570Z,99030
2023-03-25T07:14:00.630Z,99030
2023-03-25T07:15:00.609Z,99030
2023-03-25T07:16:00.664Z,99030
2023-03-25T07:17:00.659Z,99030
2023-03-25T07:18:00.670Z,99020
2023-03-25T07:19:00.640Z,99030
2023-03-25T07:20:00.623Z,99040
2023-03-25T07:21:00.602Z,99040
2023-03-25T07:22:00.648Z,99040
2023-03-25T07:23:00.622Z,99040
2023-03-25T07:24:00.699Z,99040
2023-03-25T07:25:00.920Z,99040
2023-03-25T07:26:00.587Z,99040
2023-03-25T07:27:00.600Z,99040
2023-03-25T07:28:00.631Z,99050
2023-03-25T07:29:00.628Z,99050
2023-03-25T07:30:00.618Z,99050
2023-03-25T07:31:00.633Z,99050
2023-03-25T07:32:00.704Z,99050
2023-03-25T07:33:00.641Z,99050
2023-03-25T07:34:00.591Z,99050
2023-03-25T07:35:00.683Z,99050
2023-03-25T07:36:01.168Z,99050
2023-03-25T07:37:00.665Z,99050
2023-03-25T07:38:00.595Z,99050
2023-03-25T07:39:00.693Z,99050
2023-03-25T07:40:00.741Z,99050
2023-03-25T07:41:05.230Z,99050
2023-03-25T07:42:00.879Z,99040
2023-03-25T07:43:00.595Z,99040
2023-03-25T07:44:00.699Z,99050
2023-03-25T07:45:00.602Z,99050
2023-03-25T07:46:00.973Z,99050
2023-03-25T07:47:00.621Z,99060
2023-03-25T07:48:01.019Z,99050
2023-03-25T07:49:00.662Z,99060
2023-03-25T07:50:00.614Z,99060
2023-03-25T07:51:00.686Z,99060
2023-03-25T07:52:00.631Z,99060
2023-03-25T07:53:00.598Z,99060
2023-03-25T07:54:04.976Z,99060
2023-03-25T07:55:00.708Z,99060
2023-03-25T07:56:00.612Z,99060
2023-03-25T07:57:00.790Z,99050
2023-03-25T07:58:01.019Z,99050
2023-03-25T07:59:01.168Z,99050
2023-03-25T08:00:00.704Z,99040
2023-03-25T08:01:00.746Z,99050
2023-03-25T08:02:00.637Z,99050
2023-03-25T08:03:00.750Z,99050
2023-03-25T08:04:00.730Z,99040
2023-03-25T08:05:02.110Z,99040
2023-03-25T08:06:01.139Z,99040
2023-03-25T08:07:00.638Z,99040
2023-03-25T08:08:03.816Z,99040
2023-03-25T08:09:00.577Z,99040
2023-03-25T08:10:00.635Z,99040
2023-03-25T08:11:00.750Z,99040
2023-03-25T08:12:00.584Z,99040
2023-03-25T08:13:00.572Z,99040
2023-03-25T08:14:00.632Z,99040
2023-03-25T08:15:00.565Z,99040
2023-03-25T08:16:00.586Z,99050
2023-03-25T08:17:00.593Z,99050
2023-03-25T08:18:00.706Z,99050
2023-03-25T08:19:00.565Z,99050
2023-03-25T08:20:00.620Z,99050
2023-03-25T08:21:00.564Z,99050
2023-03-25T08:22:00.635Z,99050
2023-03-25T08:23:00.786Z,99050
2023-03-25T08:24:00.628Z,99050
2023-03-25T08:25:00.583Z,99050
2023-03-25T08:26:00.603Z,99050
2023-03-25T08:27:00.939Z,99050
2023-03-25T08:28:00.544Z,99050
2023-03-25T08:29:01.285Z,99050
2023-03-25T08:30:00.560Z,99040
2023-03-25T08:31:05.490Z,99040
2023-03-25T08:32:00.687Z,99050
2023-03-25T08:33:00.568Z,99050
2023-03-25T08:34:02.243Z,99050
2023-03-25T08:35:01.151Z,99050
2023-03-25T08:36:00.979Z,99050
2023-03-25T08:37:00.532Z,99050
2023-03-25T08:38:00.611Z,99050
2023-03-25T08:39:00.523Z,99040
2023-03-25T08:40:01.703Z,99050
2023-03-25T08:41:01.864Z,99040
2023-03-25T08:42:00.533Z,99040
2023-03-25T08:43:03.582Z,99040
2023-03-25T08:44:00.608Z,99050
2023-03-25T08:45:00.691Z,99050
2023-03-25T08:46:00.543Z,99050
2023-03-25T08:47:00.516Z,99040
2023-03-25T08:48:00.979Z,99040
2023-03-25T08:49:00.675Z,99040
2023-03-25T08:50:00.551Z,99050
2023-03-25T08:51:00.889Z,99040
2023-03-25T08:52:00.595Z,99050
2023-03-25T08:53:00.524Z,99050
2023-03-25T08:54:00.543Z,99050
2023-03-25T08:55:00.522Z,99050
2023-03-25T08:56:01.096Z,99050
2023-03-25T08:57:00.992Z,99050
2023-03-25T08:58:01.580Z,99050
2023-03-25T08:59:00.511Z,99040
2023-03-25T09:00:01.617Z,99040
2023-03-25T09:01:00.690Z,99040
2023-03-25T09:02:01.641Z,99040
2023-03-25T09:03:01.319Z,99040
2023-03-25T09:04:00.578Z,99040
2023-03-25T09:05:00.623Z,99040
2023-03-25T09:06:04.546Z,99030
2023-03-25T09:07:11.429Z,99030
2023-03-25T09:08:00.881Z,99040
2023-03-25T09:09:00.793Z,99040
2023-03-25T09:10:00.605Z,99030
2023-03-25T09:11:00.507Z,99030
2023-03-25T09:12:00.522Z,99030
2023-03-25T09:13:00.509Z,99030
2023-03-25T09:14:00.679Z,99030
2023-03-25T09:15:00.891Z,99030
2023-03-25T09:16:00.568Z,99030
2023-03-25T09:17:00.544Z,99030
2023-03-25T09:18:00.589Z,99030
2023-03-25T09:19:01.133Z,99030
2023-03-25T09:20:00.502Z,99030
2023-03-25T09:21:00.536Z,99020
2023-03-25T09:22:00.559Z,99030
2023-03-25T09:23:00.533Z,99020
2023-03-25T09:24:00.530Z,99030
2023-03-25T09:25:00.537Z,99030
2023-03-25T09:26:01.441Z,99030
2023-03-25T09:27:01.779Z,99030
2023-03-25T09:28:00.486Z,99030
2023-03-25T09:29:00.526Z,99030
2023-03-25T09:30:00.514Z,99030
2023-03-25T09:31:00.543Z,99030
2023-03-25T09:32:00.716Z,99030
2023-03-25T09:33:00.570Z,99030
2023-03-25T09:34:01.026Z,99040
2023-03-25T09:35:00.546Z,99030
2023-03-25T09:36:00.794Z,99040
2023-03-25T09:37:00.632Z,99030
2023-03-25T09:38:00.512Z,99030
2023-03-25T09:39:00.505Z,99030
2023-03-25T09:40:00.694Z,99030
2023-03-25T09:41:13.771Z,99030
2023-03-25T09:42:10.147Z,99030
2023-03-25T09:43:20.196Z,99020
2023-03-25T09:44:20.383Z,99030
2023-03-25T09:45:11.968Z,99030
2023-03-25T09:46:00.725Z,99020
2023-03-25T09:47:02.422Z,99030
2023-03-25T09:48:20.406Z,99020
2023-03-25T09:49:01.384Z,99030
2023-03-25T09:50:09.463Z,99020
2023-03-25T09:51:05.222Z,99030
2023-03-25T09:52:00.850Z,99020
2023-03-25T09:53:11.319Z,99030
2023-03-25T09:54:14.627Z,99030
2023-03-25T09:55:07.430Z,99030
2023-03-25T09:56:02.004Z,99030
2023-03-25T09:57:05.947Z,99030
2023-03-25T09:58:14.766Z,99030
2023-03-25T09:59:04.781Z,99030
2023-03-25T10:00:04.122Z,99030
2023-03-25T10:01:17.927Z,99030
2023-03-25T10:02:16.958Z,99030
2023-03-25T10:03:06.059Z,99020
2023-03-25T10:04:13.710Z,99020
2023-03-25T10:05:11.476Z,99030
2023-03-25T10:06:01.513Z,99030
2023-03-25T10:07:17.803Z,99020
2023-03-25T10:08:15.925Z,99020
2023-03-25T10:09:12.692Z,99020
2023-03-25T10:10:15.800Z,99020
2023-03-25T10:11:05.157Z,99020
2023-03-25T10:12:07.888Z,99010
2023-03-25T10:13:09.053Z,99020
2023-03-25T10:14:19.076Z,99020
2023-03-25T10:15:20.374Z,99010
2023-03-25T10:16:17.293Z,99020
2023-03-25T10:17:15.916Z,99010
2023-03-25T10:18:20.243Z,99010
2023-03-25T10:19:20.402Z,99010
2023-03-25T10:20:11.508Z,99010
2023-03-25T10:21:14.209Z,99010
2023-03-25T10:22:12.698Z,99010
2023-03-25T10:23:04.232Z,99010
2023-03-25T10:24:20.448Z,99010
2023-03-25T10:25:04.485Z,99010
2023-03-25T10:26:09.086Z,99010
2023-03-25T10:27:04.697Z,99000
2023-03-25T10:28:01.779Z,99010
2023-03-25T10:29:08.880Z,99010
2023-03-25T10:30:08.828Z,99000
2023-03-25T10:31:01.947Z,99000
2023-03-25T10:32:05.545Z,99010
2023-03-25T10:33:03.378Z,98990
2023-03-25T10:34:05.582Z,99000
2023-03-25T10:35:03.895Z,99000
2023-03-25T10:36:01.735Z,99000
2023-03-25T10:37:02.677Z,98990
2023-03-25T10:38:13.770Z,98990
2023-03-25T10:39:03.224Z,99000
2023-03-25T10:40:10.491Z,98990
2023-03-25T10:41:15.234Z,98990
2023-03-25T10:42:11.461Z,99000
2023-03-25T10:43:20.430Z,98990
2023-03-25T10:44:01.102Z,99000
2023-03-25T10:45:00.784Z,98990
2023-03-25T10:46:17.956Z,98990
2023-03-25T10:47:06.161Z,99000
2023-03-25T10:48:10.042Z,98990
2023-03-25T10:49:00.490Z,99000
2023-03-25T10:50:01.047Z,99000
2023-03-25T10:51:01.925Z,98990
2023-03-25T10:52:00.598Z,98990
2023-03-25T10:53:01.861Z,98990
2023-03-25T10:54:01.203Z,98990
2023-03-25T10:55:00.657Z,98990
2023-03-25T10:56:05.666Z,98990
2023-03-25T10:57:05.067Z,98990
2023-03-25T10:58:01.076Z,98990
2023-03-25T10:59:10.141Z,98990
2023-03-25T11:00:08.236Z,98990
2023-03-25T11:01:09.447Z,98980
2023-03-25T11:02:11.842Z,98980
2023-03-25T11:03:00.606Z,98980
2023-03-25T11:04:02.398Z,98980
2023-03-25T11:05:03.509Z,98980
2023-03-25T11:06:00.610Z,98980
2023-03-25T11:07:00.634Z,98980
2023-03-25T11:08:08.721Z,98970
2023-03-25T11:09:11.498Z,98980
2023-03-25T11:10:09.531Z,98980
2023-03-25T11:11:04.943Z,98970
2023-03-25T11:12:03.737Z,98970
2023-03-25T11:13:01.008Z,98970
2023-03-25T11:14:02.010Z,98960
2023-03-25T11:15:00.973Z,98950
2023-03-25T11:16:02.431Z,98960
2023-03-25T11:17:03.633Z,98960
2023-03-25T11:18:11.241Z,98960
2023-03-25T11:19:01.269Z,98960
2023-03-25T11:20:05.989Z,98960
2023-03-25T11:21:05.495Z,98960
2023-03-25T11:22:08.322Z,98960
2023-03-25T11:23:07.031Z,98960
2023-03-25T11:24:01.073Z,98960
2023-03-25T11:25:11.086Z,98960
2023-03-25T11:26:05.255Z,98960
2023-03-25T11:27:01.046Z,98960
2023-03-25T11:28:09.661Z,98960
2023-03-25T11:29:07.819Z,98960
2023-03-25T11:30:04.106Z,98960
2023-03-25T11:31:12.700Z,98970
2023-03-25T11:32:05.902Z,98950
2023-03-25T11:33:04.943Z,98960
2023-03-25T11:34:05.020Z,98960
2023-03-25T11:35:05.112Z,98950
2023-03-25T11:36:19.048Z,98950
2023-03-25T11:37:06.118Z,98950
2023-03-25T11:38:07.449Z,98950
2023-03-25T11:39:11.266Z,98950
2023-03-25T11:40:04.667Z,98950
2023-03-25T11:41:00.592Z,98960
2023-03-25T11:42:18.942Z,98950
2023-03-25T11:43:01.458Z,98960
2023-03-25T11:44:04.039Z,98950
2023-03-25T11:45:01.390Z,98940
2023-03-25T11:46:13.045Z,98950
2023-03-25T11:47:04.054Z,98940
2023-03-25T11:48:09.833Z,98940
2023-03-25T11:49:13.383Z,98940
2023-03-25T11:50:01.077Z,98950
2023-03-25T11:51:02.946Z,98950
2023-03-25T11:52:06.054Z,98950
2023-03-25T11:53:03.044Z,98950
2023-03-25T11:54:04.617Z,98950
2023-03-25T11:55:00.718Z,98950
2023-03-25T11:56:05.406Z,98960
2023-03-25T11:57:02.680Z,98950
2023-03-25T11:58:01.183Z,98960
2023-03-25T11:59:02.124Z,98960
2023-03-25T12:00:04.879Z,98970
2023-03-25T12:01:03.564Z,98970
2023-03-25T12:02:03.078Z,98970
2023-03-25T12:03:02.816Z,98970
2023-03-25T12:04:12.153Z,98960
2023-03-25T12:05:10.493Z,98970
2023-03-25T12:06:13.923Z,98970
2023-03-25T12:07:07.167Z,98970
2023-03-25T12:08:10.079Z,98970
2023-03-25T12:09:06.928Z,98960
2023-03-25T12:10:05.042Z,98960
2023-03-25T12:11:07.973Z,98960
2023-03-25T12:12:20.424Z,98960
2023-03-25T12:13:13.733Z,98960
2023-03-25T12:14:19.772Z,98970
2023-03-25T12:15:03.754Z,98970
2023-03-25T12:16:16.873Z,98970
2023-03-25T12:17:20.412Z,98980
2023-03-25T12:18:14.704Z,98990
2023-03-25T12:19:20.434Z,98990
2023-03-25T12:20:10.461Z,98990
2023-03-25T12:21:14.837Z,98990
2023-03-25T12:22:11.486Z,98990
2023-03-25T12:23:11.900Z,99010
2023-03-25T12:24:10.186Z,99000
2023-03-25T12:25:11.999Z,99000
2023-03-25T12:26:04.832Z,99010
2023-03-25T12:27:20.447Z,99010
2023-03-25T12:28:10.164Z,99020
2023-03-25T12:29:09.115Z,99030
2023-03-25T12:30:18.404Z,99020
2023-03-25T12:31:17.840Z,99040
2023-03-25T12:32:09.938Z,99030
2023-03-25T12:33:17.901Z,99040
2023-03-25T12:34:10.466Z,99030
2023-03-25T12:35:01.510Z,99040
2023-03-25T12:36:17.837Z,99040
2023-03-25T12:37:08.362Z,99040
2023-03-25T12:38:02.549Z,99040
2023-03-25T12:39:09.660Z,99040
2023-03-25T12:40:15.673Z,99050
2023-03-25T12:41:13.057Z,99050
2023-03-25T12:42:11.795Z,99050
2023-03-25T12:43:09.571Z,99050
2023-03-25T12:44:09.212Z,99050
2023-03-25T12:45:10.621Z,99050
2023-03-25T12:46:11.721Z,99050
2023-03-25T12:47:10.454Z,99050
2023-03-25T12:48:10.342Z,99050
2023-03-25T12:49:13.819Z,99050
2023-03-25T12:50:07.223Z,99050
2023-03-25T12:51:11.517Z,99040
2023-03-25T12:52:08.843Z,99050